CheckWX is a tool to help pilots better visualize weather data.  It is not intended as a substitute for an official pre-flight weather briefing.

22:16:10 UTC

ENQR METAR
Snorre B Oilp
Snorre B Oilp, Norway
Current

26 mins ago

ENQR 212150Z AUTO 21020KT 9999NDV OVC005/// 09/09 Q1021 W///S4
Observed
Feb-21 @ 21:50 UTC
Wind
  • 210° at 20 KTS
Visibility
Cloud Levels
  • Overcast at 500' AGL
Temperature
C / 48°F
Dewpoint
C / 48°F
Humidity
100%
Altimeter
30.15" Hg
Pressure
1020.92 hPa
Previous

56 mins ago

ENQR 212120Z AUTO 21022KT 1400NDV OVC004/// 09/09 Q1020 W///S4
Observed
Feb-21 @ 21:20 UTC
Wind
  • 210° at 22 KTS
Visibility
Cloud Levels
  • Overcast at 400' AGL
Temperature
C / 48°F
Dewpoint
C / 48°F
Humidity
100%
Altimeter
30.12" Hg
Pressure
1019.92 hPa
Previous

1 hour ago

ENQR 212050Z AUTO 21020KT 0300NDV NCD 09/08 Q1020 W///S4
Observed
Feb-21 @ 20:50 UTC
Wind
  • 210° at 20 KTS
Visibility
Cloud Levels
  • Clear skies
Temperature
C / 48°F
Dewpoint
C / 46°F
Humidity
94%
Altimeter
30.12" Hg
Pressure
1019.92 hPa